createdAt,value
2023-04-24T00:00:42.458Z,5.73
2023-04-24T00:03:11.018Z,6.67
2023-04-24T00:05:41.386Z,5.30
2023-04-24T00:08:09.777Z,8.60
2023-04-24T00:10:38.485Z,6.57
2023-04-24T00:13:06.723Z,5.10
2023-04-24T00:15:36.348Z,6.83
2023-04-24T00:18:04.871Z,6.37
2023-04-24T00:20:33.560Z,5.93
2023-04-24T00:23:01.884Z,5.27
2023-04-24T00:25:30.135Z,9.60
2023-04-24T00:27:58.408Z,6.87
2023-04-24T00:30:26.922Z,5.33
2023-04-24T00:32:56.579Z,5.57
2023-04-24T00:35:26.053Z,6.93
2023-04-24T00:37:54.418Z,5.43
2023-04-24T00:40:22.908Z,4.40
2023-04-24T00:42:51.270Z,4.80
2023-04-24T00:45:19.791Z,4.63
2023-04-24T00:47:48.235Z,6.90
2023-04-24T00:50:19.059Z,5.13
2023-04-24T00:52:48.551Z,5.10
2023-04-24T00:55:16.991Z,6.37
2023-04-24T00:57:45.930Z,6.27
2023-04-24T01:00:15.682Z,5.63
2023-04-24T01:02:46.291Z,7.13
2023-04-24T01:05:16.098Z,6.10
2023-04-24T01:07:50.072Z,4.73
2023-04-24T01:10:19.109Z,5.70
2023-04-24T01:12:48.577Z,5.83
2023-04-24T01:15:16.840Z,5.43
2023-04-24T01:17:45.350Z,5.63
2023-04-24T01:20:13.947Z,6.50
2023-04-24T01:22:44.674Z,6.33
2023-04-24T01:25:13.045Z,5.70
2023-04-24T01:27:41.347Z,6.07
2023-04-24T01:30:10.886Z,6.40
2023-04-24T01:32:39.769Z,6.93
2023-04-24T01:35:09.699Z,5.87
2023-04-24T01:37:39.362Z,5.87
2023-04-24T01:40:10.288Z,6.70
2023-04-24T01:42:38.553Z,5.27
2023-04-24T01:45:08.261Z,6.90
2023-04-24T01:47:36.753Z,5.70
2023-04-24T01:50:05.870Z,5.13
2023-04-24T01:52:34.518Z,5.57
2023-04-24T01:55:03.312Z,5.90
2023-04-24T01:57:33.343Z,6.13
2023-04-24T02:00:01.949Z,6.47
2023-04-24T02:02:31.418Z,5.60
2023-04-24T02:04:59.910Z,7.43
2023-04-24T02:07:28.183Z,7.33
2023-04-24T02:09:56.658Z,7.67
2023-04-24T02:12:24.919Z,6.33
2023-04-24T02:14:54.953Z,8.60
2023-04-24T02:17:23.730Z,7.10
2023-04-24T02:19:52.014Z,6.07
2023-04-24T02:22:20.576Z,6.73
2023-04-24T02:24:48.847Z,7.53
2023-04-24T02:27:17.793Z,10.17
2023-04-24T02:29:46.221Z,9.33
2023-04-24T02:32:16.809Z,10.23
2023-04-24T02:34:45.375Z,6.33
2023-04-24T02:37:14.452Z,9.50
2023-04-24T02:39:43.117Z,8.47
2023-04-24T02:42:11.742Z,7.90
2023-04-24T02:44:39.979Z,8.53
2023-04-24T02:47:08.671Z,5.80
2023-04-24T02:49:38.424Z,7.33
2023-04-24T02:52:06.954Z,7.50
2023-04-24T02:54:35.215Z,7.20
2023-04-24T02:57:03.666Z,5.97
2023-04-24T02:59:32.934Z,8.20
2023-04-24T03:02:01.237Z,7.10
2023-04-24T03:04:29.942Z,6.70
2023-04-24T03:07:00.029Z,7.20
2023-04-24T03:09:28.456Z,6.40
2023-04-24T03:11:56.702Z,6.50
2023-04-24T03:14:26.751Z,7.23
2023-04-24T03:16:55.087Z,7.40
2023-04-24T03:19:23.304Z,10.27
2023-04-24T03:22:07.850Z,9.83
2023-04-24T03:24:36.456Z,5.63
2023-04-24T03:27:05.100Z,7.80
2023-04-24T03:29:54.947Z,7.10
2023-04-24T03:32:24.267Z,7.40
2023-04-24T03:34:54.399Z,8.40
2023-04-24T03:37:24.006Z,8.33
2023-04-24T03:40:03.540Z,7.50
2023-04-24T03:42:32.532Z,6.47
2023-04-24T03:45:01.294Z,9.00
2023-04-24T03:47:34.260Z,6.20
2023-04-24T03:50:03.942Z,7.33
2023-04-24T03:52:34.354Z,7.57
2023-04-24T03:55:02.887Z,8.60
2023-04-24T03:57:33.473Z,7.60
2023-04-24T04:00:15.421Z,7.80
2023-04-24T04:02:47.527Z,7.60
2023-04-24T04:05:19.601Z,8.20
2023-04-24T04:07:50.082Z,9.80
2023-04-24T04:10:18.788Z,10.77
2023-04-24T04:12:47.560Z,8.07
2023-04-24T04:15:16.227Z,8.57
2023-04-24T04:17:44.665Z,8.47
2023-04-24T04:20:13.594Z,9.10
2023-04-24T04:22:44.545Z,10.13
2023-04-24T04:25:20.634Z,9.03
2023-04-24T04:27:49.957Z,7.23
2023-04-24T04:30:19.316Z,11.23
2023-04-24T04:32:58.132Z,11.77
2023-04-24T04:35:27.202Z,9.10
2023-04-24T04:37:57.234Z,7.63
2023-04-24T04:40:54.361Z,8.13
2023-04-24T04:43:26.720Z,8.70
2023-04-24T04:45:59.645Z,8.80
2023-04-24T04:48:42.060Z,9.27
2023-04-24T04:51:11.293Z,9.50
2023-04-24T04:53:39.722Z,11.73
2023-04-24T04:56:10.205Z,13.53
2023-04-24T04:58:42.650Z,13.83
2023-04-24T05:01:14.471Z,11.27
2023-04-24T05:03:47.158Z,9.80
2023-04-24T05:06:21.588Z,8.70
2023-04-24T05:08:58.150Z,9.17
2023-04-24T05:11:48.323Z,12.03
2023-04-24T05:14:18.956Z,8.13
2023-04-24T05:16:47.678Z,10.17
2023-04-24T05:19:18.785Z,8.67
2023-04-24T05:21:48.246Z,11.43
2023-04-24T05:24:18.713Z,8.13
2023-04-24T05:26:50.910Z,10.43
2023-04-24T05:29:29.042Z,10.97
2023-04-24T05:32:00.540Z,9.97
2023-04-24T05:35:03.658Z,10.80
2023-04-24T05:37:35.975Z,10.67
2023-04-24T05:40:30.850Z,17.40
2023-04-24T05:43:06.113Z,13.57
2023-04-24T05:45:52.381Z,17.83
2023-04-24T05:48:36.161Z,10.80
2023-04-24T05:51:08.284Z,12.73
2023-04-24T05:53:38.870Z,10.07
2023-04-24T05:56:12.346Z,12.70
2023-04-24T05:58:46.593Z,10.00
2023-04-24T06:01:20.513Z,17.30
2023-04-24T06:03:57.696Z,11.00
2023-04-24T06:06:29.302Z,11.53
2023-04-24T06:09:00.841Z,12.20
2023-04-24T06:11:31.878Z,11.70
2023-04-24T06:14:02.478Z,12.30
2023-04-24T06:16:40.299Z,16.93
2023-04-24T06:19:21.664Z,12.40
2023-04-24T06:21:50.009Z,11.90
2023-04-24T06:24:18.579Z,13.70
2023-04-24T06:26:47.184Z,11.70
2023-04-24T06:29:16.925Z,13.10
2023-04-24T06:31:45.263Z,8.63
2023-04-24T06:34:13.644Z,8.40
2023-04-24T06:36:43.835Z,9.70
2023-04-24T06:39:12.329Z,8.47
2023-04-24T06:41:41.049Z,9.83
2023-04-24T06:44:11.696Z,8.07
2023-04-24T06:46:42.065Z,7.90
2023-04-24T06:49:10.529Z,8.23
2023-04-24T06:51:38.898Z,8.27
2023-04-24T06:54:07.355Z,6.40
2023-04-24T06:56:35.748Z,10.77
2023-04-24T06:59:04.264Z,7.80
2023-04-24T07:01:32.558Z,8.10
2023-04-24T07:04:02.816Z,8.07
2023-04-24T07:06:32.876Z,9.50
2023-04-24T07:09:02.925Z,7.43
2023-04-24T07:11:31.455Z,7.70
2023-04-24T07:13:59.819Z,10.03
2023-04-24T07:16:28.359Z,11.90
2023-04-24T07:18:56.784Z,11.27
2023-04-24T07:21:26.832Z,8.67
2023-04-24T07:23:55.180Z,13.60
2023-04-24T07:26:23.549Z,11.30
2023-04-24T07:28:51.923Z,8.47
2023-04-24T07:31:20.330Z,10.20
2023-04-24T07:33:52.763Z,10.67
2023-04-24T07:36:21.040Z,9.67
2023-04-24T07:38:51.918Z,13.30
2023-04-24T07:41:20.345Z,12.47
2023-04-24T07:43:48.636Z,11.43
2023-04-24T07:46:17.171Z,10.70
2023-04-24T07:48:45.784Z,14.00
2023-04-24T07:51:14.444Z,12.73
2023-04-24T07:53:42.759Z,11.30
2023-04-24T07:56:12.797Z,16.37
2023-04-24T07:58:41.116Z,10.73
2023-04-24T08:01:09.544Z,11.67
2023-04-24T08:03:38.043Z,13.57
2023-04-24T08:06:06.994Z,12.37
2023-04-24T08:08:35.784Z,14.40
2023-04-24T08:11:04.055Z,13.77
2023-04-24T08:13:33.820Z,17.40
2023-04-24T08:16:02.141Z,11.93
2023-04-24T08:18:30.659Z,12.00
2023-04-24T08:21:02.504Z,14.40
2023-04-24T08:23:31.558Z,14.93
2023-04-24T08:25:59.870Z,16.47
2023-04-24T08:28:28.191Z,13.23
2023-04-24T08:30:57.997Z,14.57
2023-04-24T08:33:26.662Z,11.30
2023-04-24T08:35:55.740Z,17.33
2023-04-24T08:38:24.578Z,15.30
2023-04-24T08:40:52.877Z,17.40
2023-04-24T08:43:25.076Z,15.40
2023-04-24T08:45:55.869Z,16.40
2023-04-24T08:48:31.386Z,14.87
2023-04-24T08:51:02.362Z,19.87
2023-04-24T08:53:30.828Z,15.33
2023-04-24T08:55:59.176Z,20.77
2023-04-24T08:58:28.240Z,16.20
2023-04-24T09:00:57.106Z,16.80
2023-04-24T09:03:27.185Z,16.93
2023-04-24T09:05:56.873Z,15.60
2023-04-24T09:08:27.305Z,15.73
2023-04-24T09:10:55.527Z,16.90
2023-04-24T09:13:23.839Z,16.00
2023-04-24T09:15:52.544Z,10.90
2023-04-24T09:18:21.772Z,9.63
2023-04-24T09:21:01.944Z,5.60
2023-04-24T09:23:31.148Z,5.60
2023-04-24T09:26:01.190Z,6.60
2023-04-24T09:28:32.691Z,5.07
2023-04-24T09:31:05.890Z,6.77
2023-04-24T09:33:34.263Z,8.20
2023-04-24T09:36:04.110Z,5.60
2023-04-24T09:38:36.650Z,3.70
2023-04-24T09:41:06.718Z,3.83
2023-04-24T09:43:34.997Z,7.13
2023-04-24T09:46:08.226Z,6.27
2023-04-24T09:48:37.834Z,2.60
2023-04-24T09:51:11.670Z,4.70
2023-04-24T09:53:41.184Z,3.80
2023-04-24T09:56:14.213Z,4.00
2023-04-24T09:58:42.710Z,3.87
2023-04-24T10:01:10.955Z,4.90
2023-04-24T10:03:39.458Z,7.93
2023-04-24T10:06:11.238Z,4.07
2023-04-24T10:08:39.712Z,3.00
2023-04-24T10:11:08.459Z,1.27
2023-04-24T10:13:37.726Z,3.53
2023-04-24T10:16:06.617Z,3.00
2023-04-24T10:18:36.188Z,2.00
2023-04-24T10:21:04.913Z,3.37
2023-04-24T10:23:34.668Z,1.07
2023-04-24T10:26:03.049Z,2.80
2023-04-24T10:28:33.080Z,2.10
2023-04-24T10:31:01.832Z,2.60
2023-04-24T10:33:31.698Z,2.30
2023-04-24T10:36:00.603Z,2.97
2023-04-24T10:38:30.812Z,2.37
2023-04-24T10:41:10.347Z,2.97
2023-04-24T10:43:38.651Z,2.07
2023-04-24T10:46:08.511Z,2.50
2023-04-24T10:48:37.015Z,1.90
2023-04-24T10:51:05.549Z,4.70
2023-04-24T10:53:33.828Z,2.60
2023-04-24T10:56:06.461Z,2.40
2023-04-24T10:58:39.562Z,1.83
2023-04-24T11:01:08.486Z,1.90
2023-04-24T11:03:38.803Z,2.60
2023-04-24T11:06:08.631Z,3.17
2023-04-24T11:08:41.414Z,2.00
2023-04-24T11:11:15.853Z,2.23
2023-04-24T11:14:23.024Z,1.70
2023-04-24T11:16:54.959Z,1.47
2023-04-24T11:19:25.972Z,1.37
2023-04-24T11:21:59.934Z,2.00
2023-04-24T11:24:39.404Z,1.20
2023-04-24T11:27:16.610Z,1.50
2023-04-24T11:29:47.516Z,1.50
2023-04-24T11:32:28.172Z,2.23
2023-04-24T11:34:57.857Z,1.40
2023-04-24T11:37:28.548Z,1.07
2023-04-24T11:39:59.035Z,1.87
2023-04-24T11:42:30.225Z,1.17
2023-04-24T11:44:58.844Z,0.97
2023-04-24T11:47:32.029Z,1.30
2023-04-24T11:50:01.794Z,2.00
2023-04-24T11:52:31.059Z,1.83
2023-04-24T11:54:59.986Z,1.43
2023-04-24T11:57:35.502Z,2.20
2023-04-24T12:00:07.058Z,0.80
2023-04-24T12:02:40.979Z,1.43
2023-04-24T12:05:10.306Z,2.33
2023-04-24T12:07:44.937Z,2.63
2023-04-24T12:10:13.494Z,2.67
2023-04-24T12:12:43.157Z,7.17
2023-04-24T12:15:13.520Z,1.13
2023-04-24T12:17:44.360Z,0.83
2023-04-24T12:20:13.870Z,7.00
2023-04-24T12:22:47.796Z,1.50
2023-04-24T12:25:16.942Z,1.30
2023-04-24T12:27:47.298Z,0.77
2023-04-24T12:30:16.921Z,0.80
2023-04-24T12:32:46.383Z,1.27
2023-04-24T12:35:15.574Z,1.10
2023-04-24T12:37:47.381Z,1.13
2023-04-24T12:40:16.621Z,1.07
2023-04-24T12:42:47.691Z,1.00
2023-04-24T12:45:16.527Z,1.10
2023-04-24T12:47:45.823Z,1.00
2023-04-24T12:50:15.392Z,0.90
2023-04-24T12:52:45.318Z,0.90
2023-04-24T12:55:14.276Z,0.70
2023-04-24T12:57:43.083Z,1.30
2023-04-24T13:00:14.742Z,0.80
2023-04-24T13:02:43.172Z,0.70
2023-04-24T13:05:12.736Z,0.87
2023-04-24T13:07:41.162Z,0.93
2023-04-24T13:10:10.656Z,1.30
2023-04-24T13:12:39.961Z,0.70
2023-04-24T13:15:11.970Z,2.23
2023-04-24T13:17:41.901Z,0.70
2023-04-24T13:20:10.569Z,0.80
2023-04-24T13:22:39.136Z,0.90
2023-04-24T13:25:08.801Z,1.33
2023-04-24T13:27:37.314Z,0.70
2023-04-24T13:30:06.474Z,0.87
2023-04-24T13:32:36.594Z,1.33
2023-04-24T13:35:07.328Z,2.10
2023-04-24T13:37:35.709Z,1.20
2023-04-24T13:40:07.203Z,1.10
2023-04-24T13:42:36.051Z,1.00
2023-04-24T13:45:21.192Z,0.90
2023-04-24T13:47:53.090Z,1.83
2023-04-24T13:50:23.497Z,1.20
2023-04-24T13:52:52.621Z,3.07
2023-04-24T13:55:21.143Z,1.30
2023-04-24T13:57:56.296Z,0.97
2023-04-24T14:00:24.726Z,1.07
2023-04-24T14:02:54.127Z,0.80
2023-04-24T14:05:24.804Z,1.27
2023-04-24T14:07:53.720Z,0.80
2023-04-24T14:10:22.145Z,1.27
2023-04-24T14:12:50.845Z,1.00
2023-04-24T14:15:19.567Z,0.90
2023-04-24T14:17:48.056Z,0.77
2023-04-24T14:20:16.776Z,1.60
2023-04-24T14:22:46.795Z,1.20
2023-04-24T14:25:15.258Z,1.17
2023-04-24T14:27:43.862Z,0.90
2023-04-24T14:30:13.828Z,0.93
2023-04-24T14:32:42.267Z,1.10
2023-04-24T14:35:11.335Z,0.97
2023-04-24T14:37:42.269Z,1.00
2023-04-24T14:40:29.845Z,1.30
2023-04-24T14:43:01.733Z,1.27
2023-04-24T14:45:30.554Z,3.83
2023-04-24T14:47:59.822Z,1.60
2023-04-24T14:50:29.363Z,1.40
2023-04-24T14:52:59.279Z,1.20
2023-04-24T14:55:29.859Z,1.67
2023-04-24T14:57:58.176Z,1.50
2023-04-24T15:00:26.480Z,1.17
2023-04-24T15:02:56.480Z,1.97
2023-04-24T15:05:26.166Z,1.27
2023-04-24T15:07:55.150Z,1.67
2023-04-24T15:10:24.975Z,1.00
2023-04-24T15:12:54.734Z,1.00
2023-04-24T15:15:23.275Z,1.03
2023-04-24T15:17:51.780Z,1.07
2023-04-24T15:20:20.260Z,0.83
2023-04-24T15:22:49.470Z,1.40
2023-04-24T15:25:22.436Z,1.50
2023-04-24T15:27:52.048Z,1.30
2023-04-24T15:30:42.748Z,0.87
2023-04-24T15:33:11.552Z,1.57
2023-04-24T15:35:39.961Z,1.60
2023-04-24T15:38:08.517Z,1.30
2023-04-24T15:40:37.025Z,1.47
2023-04-24T15:43:05.753Z,1.10
2023-04-24T15:45:36.406Z,1.20
2023-04-24T15:48:05.377Z,1.27
2023-04-24T15:50:34.986Z,0.80
2023-04-24T15:53:03.977Z,1.63
2023-04-24T15:55:32.345Z,1.23
2023-04-24T15:58:02.424Z,1.17
2023-04-24T16:04:58.091Z,1.13
2023-04-24T16:21:21.344Z,4.03
2023-04-24T16:23:50.120Z,1.83
2023-04-24T16:26:18.920Z,0.90
2023-04-24T16:28:47.562Z,0.87
2023-04-24T16:31:16.109Z,2.07
2023-04-24T16:33:44.859Z,1.00
2023-04-24T16:36:14.028Z,1.50
2023-04-24T16:38:43.648Z,1.60
2023-04-24T16:41:12.167Z,1.47
2023-04-24T16:43:40.451Z,2.87
2023-04-24T16:46:08.695Z,3.23
2023-04-24T16:48:37.175Z,2.53
2023-04-24T16:51:06.613Z,2.60
2023-04-24T16:53:35.358Z,2.37
2023-04-24T16:56:05.847Z,2.20
2023-04-24T16:58:34.428Z,2.30
2023-04-24T17:01:03.061Z,2.83
2023-04-24T17:03:31.921Z,4.53
2023-04-24T17:06:00.618Z,2.33
2023-04-24T17:08:30.014Z,2.43
2023-04-24T17:10:58.356Z,5.00
2023-04-24T17:13:28.630Z,2.93
2023-04-24T17:15:57.516Z,3.33
2023-04-24T17:18:26.448Z,4.67
2023-04-24T17:20:54.915Z,4.93
2023-04-24T17:23:24.075Z,3.40
2023-04-24T17:25:53.271Z,2.33
2023-04-24T17:28:29.369Z,2.40
2023-04-24T17:30:59.145Z,3.60
2023-04-24T17:33:28.597Z,2.13
2023-04-24T17:35:59.724Z,2.03
2023-04-24T17:38:30.065Z,2.43
2023-04-24T17:41:00.653Z,2.37
2023-04-24T17:43:31.808Z,1.50
2023-04-24T17:46:01.182Z,1.80
2023-04-24T17:48:32.275Z,3.67
2023-04-24T17:51:01.231Z,4.03
2023-04-24T17:53:30.626Z,3.00
2023-04-24T17:56:06.535Z,4.80
2023-04-24T17:58:38.385Z,3.70
2023-04-24T18:01:07.948Z,2.10
2023-04-24T18:03:36.697Z,1.67
2023-04-24T18:06:06.255Z,2.27
2023-04-24T18:08:36.210Z,4.77
2023-04-24T18:11:04.947Z,3.27
2023-04-24T18:13:33.844Z,2.50
2023-04-24T18:16:05.510Z,3.23
2023-04-24T18:18:35.553Z,6.47
2023-04-24T18:21:05.189Z,2.67
2023-04-24T18:23:36.958Z,1.97
2023-04-24T18:26:07.313Z,2.23
2023-04-24T18:28:44.624Z,3.10
2023-04-24T18:31:19.687Z,2.33
2023-04-24T18:33:50.967Z,3.33
2023-04-24T18:36:19.626Z,1.77
2023-04-24T18:38:52.857Z,3.80
2023-04-24T18:41:23.093Z,4.20
2023-04-24T18:43:53.514Z,3.13
2023-04-24T18:46:23.980Z,5.03
2023-04-24T18:48:53.907Z,2.60
2023-04-24T18:51:23.365Z,3.43
2023-04-24T18:53:53.288Z,3.67
2023-04-24T18:56:23.031Z,2.13
2023-04-24T18:58:57.382Z,3.80
2023-04-24T19:01:28.305Z,1.70
2023-04-24T19:03:57.755Z,3.50
2023-04-24T19:06:26.738Z,3.13
2023-04-24T19:08:55.591Z,2.20
2023-04-24T19:11:25.585Z,2.60
2023-04-24T19:13:54.738Z,2.30
2023-04-24T19:16:26.277Z,6.17
2023-04-24T19:18:57.074Z,4.00
2023-04-24T19:21:26.870Z,1.77
2023-04-24T19:24:00.548Z,3.37
2023-04-24T19:26:32.253Z,5.03
2023-04-24T19:29:02.298Z,3.70
2023-04-24T19:31:31.652Z,5.20
2023-04-24T19:34:02.959Z,2.93
2023-04-24T19:36:34.615Z,3.77
2023-04-24T19:39:07.313Z,5.63
2023-04-24T19:41:41.432Z,4.27
2023-04-24T19:44:10.687Z,3.10
2023-04-24T19:46:40.420Z,2.40
2023-04-24T19:49:10.893Z,2.70
2023-04-24T19:51:40.397Z,3.20
2023-04-24T19:54:14.006Z,2.30
2023-04-24T19:56:42.828Z,2.67
2023-04-24T19:59:12.774Z,3.60
2023-04-24T20:01:44.799Z,3.67
2023-04-24T20:04:15.000Z,3.83
2023-04-24T20:06:45.048Z,4.40
2023-04-24T20:09:14.342Z,5.10
2023-04-24T20:11:43.269Z,2.00
2023-04-24T20:14:12.714Z,6.20
2023-04-24T20:16:43.233Z,2.80
2023-04-24T20:19:13.500Z,3.23
2023-04-24T20:21:43.529Z,3.33
2023-04-24T20:24:12.548Z,3.40
2023-04-24T20:26:41.490Z,2.60
2023-04-24T20:29:10.969Z,3.47
2023-04-24T20:31:39.726Z,3.70
2023-04-24T20:34:10.165Z,4.50
2023-04-24T20:36:39.710Z,5.93
2023-04-24T20:39:09.848Z,3.87
2023-04-24T20:41:41.629Z,5.27
2023-04-24T20:44:10.023Z,4.60
2023-04-24T20:46:38.428Z,4.47
2023-04-24T20:49:08.481Z,2.90
2023-04-24T20:51:36.981Z,3.10
2023-04-24T20:54:06.108Z,2.87
2023-04-24T20:56:38.280Z,4.10
2023-04-24T20:59:07.208Z,3.10
2023-04-24T21:01:35.780Z,4.47
2023-04-24T21:04:04.986Z,4.30
2023-04-24T21:06:36.245Z,5.70
2023-04-24T21:09:05.030Z,6.17
2023-04-24T21:11:33.306Z,3.70
2023-04-24T21:14:03.451Z,4.10
2023-04-24T21:16:34.231Z,3.70
2023-04-24T21:19:02.520Z,2.80
2023-04-24T21:21:30.891Z,3.37
2023-04-24T21:24:01.720Z,4.80
2023-04-24T21:26:30.109Z,5.63
2023-04-24T21:28:59.742Z,5.17
2023-04-24T21:31:30.171Z,4.00
2023-04-24T21:33:58.484Z,4.70
2023-04-24T21:36:26.888Z,2.90
2023-04-24T21:38:55.505Z,4.03
2023-04-24T21:41:24.783Z,2.80
2023-04-24T21:43:54.461Z,3.53
2023-04-24T21:46:23.691Z,3.50
2023-04-24T21:48:55.747Z,3.30
2023-04-24T21:51:24.440Z,17.23
2023-04-24T21:53:52.733Z,4.90
2023-04-24T21:56:21.126Z,4.27
2023-04-24T21:58:49.508Z,2.77
2023-04-24T22:01:26.897Z,3.27
2023-04-24T22:03:56.940Z,10.90
2023-04-24T22:06:25.291Z,2.70
2023-04-24T22:08:53.824Z,4.23
2023-04-24T22:11:26.622Z,2.90
2023-04-24T22:13:55.634Z,3.57
2023-04-24T22:16:24.945Z,4.63
2023-04-24T22:18:55.401Z,4.93
2023-04-24T22:21:25.247Z,7.50
2023-04-24T22:23:53.515Z,4.90
2023-04-24T22:26:21.749Z,5.90
2023-04-24T22:28:50.043Z,8.13
2023-04-24T22:31:18.364Z,5.57
2023-04-24T22:33:47.881Z,6.00
2023-04-24T22:36:16.490Z,8.93
2023-04-24T22:38:47.425Z,4.93
2023-04-24T22:41:16.214Z,4.90
2023-04-24T22:43:44.564Z,4.30
2023-04-24T22:46:13.115Z,5.27
2023-04-24T22:48:41.493Z,4.07
2023-04-24T22:51:09.791Z,5.50
2023-04-24T22:53:38.275Z,3.40
2023-04-24T22:56:08.630Z,10.00
2023-04-24T22:58:37.124Z,3.93
2023-04-24T23:01:05.614Z,6.37
2023-04-24T23:03:37.006Z,6.13
2023-04-24T23:06:06.179Z,6.93
2023-04-24T23:08:34.752Z,5.47
2023-04-24T23:11:03.590Z,5.33
2023-04-24T23:13:33.535Z,4.40
2023-04-24T23:16:02.125Z,5.20
2023-04-24T23:18:30.790Z,9.63
2023-04-24T23:21:02.460Z,5.83
2023-04-24T23:23:30.813Z,7.50
2023-04-24T23:25:59.866Z,5.77
2023-04-24T23:28:28.182Z,5.53
2023-04-24T23:30:58.549Z,6.53
2023-04-24T23:33:28.604Z,4.47
2023-04-24T23:35:58.951Z,6.57
2023-04-24T23:38:31.963Z,4.93
2023-04-24T23:41:08.269Z,4.23
2023-04-24T23:43:36.725Z,4.87
2023-04-24T23:46:07.003Z,8.80
2023-04-24T23:48:37.096Z,4.10
2023-04-24T23:51:06.047Z,6.10
2023-04-24T23:53:34.479Z,7.33
2023-04-24T23:56:02.728Z,4.87
2023-04-24T23:58:31.344Z,5.43
